Time;durP1;ratioP1;P1;durP2;ratioP2;P2;SDS_P1;SDS_P2;PMS_P1;PMS_P2;Temp;Humidity;BMP_temperature;BMP_pressure;BME280_temperature;BME280_humidity;BME280_pressure;Samples;Min_cycle;Max_cycle;Signal;HPM_P1;HPM_P2
2023/01/13 00:00:07;;;;;;;51.80;7.65;;;;;;;;;;4968063;28;20053;-72
2023/01/13 00:02:36;;;;;;;47.05;5.45;;;;;;;;;;4965527;28;20102;-72
2023/01/13 00:05:03;;;;;;;41.50;6.47;;;;;;;;;;4969467;28;20046;-72
2023/01/13 00:07:31;;;;;;;44.25;4.88;;;;;;;;;;4965908;28;20446;-71
2023/01/13 00:09:58;;;;;;;41.50;6.93;;;;;;;;;;4959839;28;20059;-72
2023/01/13 00:12:25;;;;;;;49.03;6.20;;;;;;;;;;4964571;28;20047;-71
2023/01/13 00:14:52;;;;;;;47.92;7.07;;;;;;;;;;4968175;28;20466;-72
2023/01/13 00:17:19;;;;;;;48.72;6.95;;;;;;;;;;4960242;28;20050;-72
2023/01/13 00:19:48;;;;;;;48.25;6.15;;;;;;;;;;4962108;28;20062;-72
2023/01/13 00:22:15;;;;;;;46.35;5.75;;;;;;;;;;4965189;28;20402;-71
2023/01/13 00:24:43;;;;;;;62.58;7.90;;;;;;;;;;4968698;28;20058;-71
2023/01/13 00:27:10;;;;;;;38.50;6.40;;;;;;;;;;4968933;28;20955;-72
2023/01/13 00:29:37;;;;;;;46.85;6.07;;;;;;;;;;4963556;28;20055;-71
2023/01/13 00:32:04;;;;;;;44.72;5.57;;;;;;;;;;4963685;28;20512;-72
2023/01/13 00:34:32;;;;;;;48.60;6.40;;;;;;;;;;4966278;28;20055;-71
2023/01/13 00:37:00;;;;;;;40.85;6.18;;;;;;;;;;4964991;28;20047;-72
2023/01/13 00:39:28;;;;;;;47.88;6.95;;;;;;;;;;4965489;28;20050;-71
2023/01/13 00:44:40;;;;;;;40.20;5.88;;;;;;;;;;4970943;28;20395;-72
2023/01/13 00:47:07;;;;;;;44.55;6.60;;;;;;;;;;4962612;28;20054;-72
2023/01/13 00:49:34;;;;;;;47.38;6.22;;;;;;;;;;4966534;28;20050;-71
2023/01/13 00:52:03;;;;;;;59.45;7.22;;;;;;;;;;4968824;28;20096;-71
2023/01/13 00:54:30;;;;;;;55.45;7.47;;;;;;;;;;4969448;28;20055;-71
2023/01/13 00:56:57;;;;;;;46.13;7.45;;;;;;;;;;4966328;28;20505;-71
2023/01/13 00:59:24;;;;;;;49.85;7.20;;;;;;;;;;4967134;28;20058;-71
2023/01/13 01:01:52;;;;;;;40.22;6.53;;;;;;;;;;4964645;28;20406;-71
2023/01/13 01:04:19;;;;;;;38.10;5.72;;;;;;;;;;4963672;28;20050;-71
2023/01/13 01:06:46;;;;;;;48.60;7.00;;;;;;;;;;4968131;28;20550;-71
2023/01/13 01:09:15;;;;;;;45.72;5.57;;;;;;;;;;4966524;28;20050;-72
2023/01/13 01:11:43;;;;;;;48.35;6.00;;;;;;;;;;4965425;28;20058;-71
2023/01/13 01:14:11;;;;;;;50.92;7.15;;;;;;;;;;4967205;28;20059;-72
2023/01/13 01:16:39;;;;;;;44.20;6.30;;;;;;;;;;4967262;28;20046;-70
2023/01/13 01:19:06;;;;;;;58.13;6.80;;;;;;;;;;4966910;28;20744;-71
2023/01/13 01:21:34;;;;;;;55.75;7.75;;;;;;;;;;4965849;28;20047;-72
2023/01/13 01:24:02;;;;;;;57.03;7.68;;;;;;;;;;4964642;28;20660;-71
2023/01/13 01:26:31;;;;;;;46.45;6.63;;;;;;;;;;4964379;28;20051;-71
2023/01/13 01:29:00;;;;;;;41.63;5.82;;;;;;;;;;4965750;28;20057;-72
2023/01/13 01:31:30;;;;;;;46.35;6.90;;;;;;;;;;4964284;28;20490;-71
2023/01/13 01:33:57;;;;;;;42.78;6.38;;;;;;;;;;4968582;28;20129;-71
2023/01/13 01:36:26;;;;;;;45.05;5.65;;;;;;;;;;4961179;28;20058;-71
2023/01/13 01:38:53;;;;;;;43.58;5.82;;;;;;;;;;4968189;28;20572;-71
2023/01/13 01:41:22;;;;;;;53.30;6.13;;;;;;;;;;4962441;28;20498;-71
2023/01/13 01:43:58;;;;;;;55.97;6.47;;;;;;;;;;4956852;28;20132;-71
2023/01/13 01:46:26;;;;;;;45.63;6.65;;;;;;;;;;4961856;28;20054;-71
2023/01/13 01:48:54;;;;;;;48.83;5.82;;;;;;;;;;4971482;28;20074;-71
2023/01/13 01:51:22;;;;;;;43.42;7.53;;;;;;;;;;4960852;28;20061;-71
2023/01/13 01:53:49;;;;;;;52.30;6.13;;;;;;;;;;4972318;28;20055;-71
2023/01/13 01:56:17;;;;;;;48.80;7.03;;;;;;;;;;4970915;28;20654;-72
2023/01/13 01:58:46;;;;;;;45.92;6.40;;;;;;;;;;4971464;28;20062;-71
2023/01/13 02:01:15;;;;;;;43.15;6.78;;;;;;;;;;4970859;28;20413;-71
2023/01/13 02:03:45;;;;;;;47.60;5.78;;;;;;;;;;4969461;28;20126;-71
2023/01/13 02:06:13;;;;;;;45.75;6.20;;;;;;;;;;4962563;28;20418;-71
2023/01/13 02:08:40;;;;;;;35.97;5.32;;;;;;;;;;4961279;28;20066;-71
2023/01/13 02:12:28;;;;;;;47.63;6.10;;;;;;;;;;4968824;28;20062;-71
2023/01/13 02:13:56;;;;;;;47.88;5.88;;;;;;;;;;4969439;28;20055;-70
2023/01/13 02:16:24;;;;;;;35.70;5.15;;;;;;;;;;4969902;28;20494;-71
2023/01/13 02:18:57;;;;;;;48.85;6.65;;;;;;;;;;4967911;28;20066;-71
2023/01/13 02:21:42;;;;;;;51.70;5.85;;;;;;;;;;4967575;28;20512;-70
2023/01/13 02:27:30;;;;;;;45.35;6.35;;;;;;;;;;4954013;28;20188;-71
2023/01/13 02:32:52;;;;;;;40.45;5.63;;;;;;;;;;4963603;28;20046;-71
2023/01/13 02:35:22;;;;;;;46.05;7.32;;;;;;;;;;4970383;28;20054;-71
2023/01/13 02:37:50;;;;;;;58.40;7.28;;;;;;;;;;4968931;28;20537;-71
2023/01/13 02:40:21;;;;;;;45.42;7.20;;;;;;;;;;4969093;28;20051;-72
2023/01/13 02:45:38;;;;;;;54.47;6.65;;;;;;;;;;4970184;28;20047;-71
2023/01/13 02:48:07;;;;;;;55.28;7.15;;;;;;;;;;4971211;28;20520;-71
2023/01/13 02:50:37;;;;;;;49.38;7.28;;;;;;;;;;4969123;28;20050;-71
2023/01/13 02:53:06;;;;;;;45.50;7.13;;;;;;;;;;4968179;28;20050;-71
2023/01/13 02:55:35;;;;;;;52.00;6.50;;;;;;;;;;4970148;28;20150;-71
2023/01/13 02:58:04;;;;;;;57.55;6.60;;;;;;;;;;4968662;28;20401;-71
2023/01/13 03:00:32;;;;;;;47.80;6.05;;;;;;;;;;4970685;28;20055;-69
2023/01/13 03:03:02;;;;;;;54.90;6.65;;;;;;;;;;4963349;28;20156;-70
2023/01/13 03:05:30;;;;;;;56.30;7.78;;;;;;;;;;4969857;28;20491;-70
2023/01/13 03:08:05;;;;;;;35.38;6.10;;;;;;;;;;4971594;28;20069;-71
2023/01/13 03:10:36;;;;;;;52.75;6.32;;;;;;;;;;4968943;28;20058;-70
2023/01/13 03:13:10;;;;;;;48.63;6.13;;;;;;;;;;4968653;28;20051;-72
2023/01/13 03:15:43;;;;;;;51.38;6.03;;;;;;;;;;4969211;28;20061;-71
2023/01/13 03:18:15;;;;;;;50.13;6.82;;;;;;;;;;4963567;28;20050;-71
2023/01/13 03:20:44;;;;;;;37.25;5.10;;;;;;;;;;4969517;28;20054;-71
2023/01/13 03:23:14;;;;;;;43.38;6.47;;;;;;;;;;4960130;28;20055;-71
2023/01/13 03:25:43;;;;;;;42.92;5.95;;;;;;;;;;4964670;28;20386;-71
2023/01/13 03:28:12;;;;;;;38.28;5.70;;;;;;;;;;4963594;28;20042;-70
2023/01/13 03:30:43;;;;;;;32.67;4.97;;;;;;;;;;4967151;28;20074;-71
2023/01/13 03:33:13;;;;;;;34.20;5.53;;;;;;;;;;4975716;28;20065;-71
2023/01/13 03:35:44;;;;;;;31.00;6.00;;;;;;;;;;4965842;28;20047;-70
2023/01/13 03:38:14;;;;;;;31.02;4.78;;;;;;;;;;4960029;28;20375;-71
2023/01/13 03:40:43;;;;;;;33.15;5.05;;;;;;;;;;4964646;28;20059;-70
2023/01/13 03:45:58;;;;;;;32.22;4.28;;;;;;;;;;4969823;28;20073;-71
2023/01/13 03:48:26;;;;;;;32.03;4.10;;;;;;;;;;4982035;28;20058;-71
2023/01/13 03:50:56;;;;;;;30.17;3.65;;;;;;;;;;4968069;28;20054;-71
2023/01/13 03:53:25;;;;;;;27.52;3.90;;;;;;;;;;4969286;28;20050;-71
2023/01/13 03:55:54;;;;;;;39.95;4.88;;;;;;;;;;4970089;28;20050;-70
2023/01/13 03:58:24;;;;;;;33.20;4.07;;;;;;;;;;4970409;28;20352;-70
2023/01/13 04:00:57;;;;;;;34.65;5.35;;;;;;;;;;4967846;28;20066;-70
2023/01/13 04:03:27;;;;;;;35.83;4.72;;;;;;;;;;4968756;28;20050;-71
2023/01/13 04:05:58;;;;;;;37.40;4.95;;;;;;;;;;4959907;28;20058;-71
2023/01/13 04:08:27;;;;;;;31.30;4.35;;;;;;;;;;4969180;28;20055;-71
2023/01/13 04:10:57;;;;;;;35.05;5.18;;;;;;;;;;4967465;28;20051;-70
2023/01/13 04:13:26;;;;;;;40.28;4.82;;;;;;;;;;4970579;28;20055;-70
2023/01/13 04:15:53;;;;;;;31.42;4.43;;;;;;;;;;4966758;28;20067;-70
2023/01/13 04:18:22;;;;;;;39.58;6.10;;;;;;;;;;4970280;28;20046;-70
2023/01/13 04:20:50;;;;;;;40.85;4.75;;;;;;;;;;4967231;28;20047;-71
2023/01/13 04:23:19;;;;;;;34.90;4.60;;;;;;;;;;4969032;28;20055;-70
2023/01/13 04:25:46;;;;;;;32.40;4.20;;;;;;;;;;4967163;28;20055;-70
2023/01/13 04:28:14;;;;;;;23.98;3.80;;;;;;;;;;4969861;28;20054;-70
2023/01/13 04:30:41;;;;;;;35.35;4.60;;;;;;;;;;4961596;28;20050;-71
2023/01/13 04:33:09;;;;;;;38.92;5.50;;;;;;;;;;4968862;28;20046;-70
2023/01/13 04:35:36;;;;;;;33.42;5.28;;;;;;;;;;4963299;28;20055;-71
2023/01/13 04:38:04;;;;;;;37.65;5.88;;;;;;;;;;4968719;28;20058;-71
2023/01/13 04:40:33;;;;;;;40.30;5.28;;;;;;;;;;4961954;28;20163;-71
2023/01/13 04:43:00;;;;;;;33.13;5.35;;;;;;;;;;4967009;28;21059;-71
2023/01/13 04:45:27;;;;;;;38.15;5.00;;;;;;;;;;4966411;28;20047;-70
2023/01/13 04:47:55;;;;;;;32.05;5.43;;;;;;;;;;4966982;28;20761;-70
2023/01/13 04:50:22;;;;;;;29.27;4.82;;;;;;;;;;4968629;28;20046;-70
2023/01/13 04:52:50;;;;;;;30.67;5.22;;;;;;;;;;4968643;28;20089;-71
2023/01/13 04:55:17;;;;;;;32.17;4.88;;;;;;;;;;4968528;28;20525;-70
2023/01/13 04:57:46;;;;;;;32.47;5.50;;;;;;;;;;4964267;28;20047;-70
2023/01/13 05:00:15;;;;;;;38.78;6.18;;;;;;;;;;4967328;28;20065;-71
2023/01/13 05:02:42;;;;;;;32.28;5.35;;;;;;;;;;4967574;28;20526;-71
2023/01/13 05:05:10;;;;;;;37.20;6.30;;;;;;;;;;4966804;28;20433;-70
2023/01/13 05:07:37;;;;;;;39.10;5.25;;;;;;;;;;4968427;28;20413;-70
2023/01/13 05:10:05;;;;;;;38.63;4.85;;;;;;;;;;4968505;28;20050;-70
2023/01/13 05:18:03;;;;;;;47.00;6.45;;;;;;;;;;4968013;28;20050;-71
2023/01/13 05:20:31;;;;;;;34.13;4.93;;;;;;;;;;4971168;28;20054;-69
2023/01/13 05:25:43;;;;;;;40.55;5.07;;;;;;;;;;4970333;28;20050;-71
2023/01/13 05:28:10;;;;;;;35.33;4.57;;;;;;;;;;4967558;28;20126;-70
2023/01/13 05:30:41;;;;;;;34.00;4.97;;;;;;;;;;4968944;28;20524;-70
2023/01/13 05:33:08;;;;;;;33.42;4.45;;;;;;;;;;4968883;28;20469;-71
2023/01/13 05:35:35;;;;;;;28.60;4.05;;;;;;;;;;4971997;28;20065;-71
2023/01/13 05:38:03;;;;;;;33.38;4.88;;;;;;;;;;4970969;28;20050;-71
2023/01/13 05:43:23;;;;;;;27.20;4.20;;;;;;;;;;4967207;28;20043;-70
2023/01/13 05:45:57;;;;;;;36.65;4.95;;;;;;;;;;4969836;28;20054;-70
2023/01/13 05:48:25;;;;;;;24.55;3.67;;;;;;;;;;4971315;28;20043;-71
2023/01/13 05:50:52;;;;;;;32.00;4.50;;;;;;;;;;4969501;28;20046;-71
2023/01/13 05:53:20;;;;;;;32.20;3.45;;;;;;;;;;4972552;28;20071;-71
2023/01/13 05:55:48;;;;;;;44.00;5.63;;;;;;;;;;4966225;28;20066;-72
2023/01/13 05:58:16;;;;;;;40.25;4.95;;;;;;;;;;4971368;28;20046;-72
2023/01/13 06:00:43;;;;;;;39.10;5.05;;;;;;;;;;4970916;28;20047;-73
2023/01/13 06:03:12;;;;;;;34.85;5.20;;;;;;;;;;4970726;28;20042;-72
2023/01/13 06:05:39;;;;;;;34.75;4.82;;;;;;;;;;4967100;28;20481;-72
2023/01/13 06:08:07;;;;;;;32.00;4.63;;;;;;;;;;4968198;28;20058;-72
2023/01/13 06:10:35;;;;;;;34.53;4.38;;;;;;;;;;4962090;28;20051;-73
2023/01/13 06:13:02;;;;;;;40.88;5.35;;;;;;;;;;4932945;28;20059;-72
2023/01/13 06:15:29;;;;;;;32.67;4.65;;;;;;;;;;4946744;28;20047;-71
2023/01/13 06:17:57;;;;;;;34.78;4.53;;;;;;;;;;4925127;29;20462;-72
2023/01/13 06:20:26;;;;;;;42.20;4.97;;;;;;;;;;4941980;28;20050;-71
2023/01/13 06:22:54;;;;;;;36.65;4.47;;;;;;;;;;4949879;28;20062;-72
2023/01/13 06:25:29;;;;;;;35.60;5.13;;;;;;;;;;4948729;28;20083;-71
2023/01/13 06:27:57;;;;;;;37.20;5.03;;;;;;;;;;4936467;28;20044;-71
2023/01/13 06:30:24;;;;;;;40.88;4.88;;;;;;;;;;4932121;29;20441;-72
2023/01/13 06:32:53;;;;;;;34.40;5.05;;;;;;;;;;4941920;28;20043;-71
2023/01/13 06:35:22;;;;;;;37.90;5.03;;;;;;;;;;4945641;28;20479;-73
2023/01/13 06:37:51;;;;;;;37.38;4.13;;;;;;;;;;4949896;28;20074;-72
2023/01/13 06:40:19;;;;;;;37.25;4.50;;;;;;;;;;4951139;29;20043;-72
2023/01/13 06:45:31;;;;;;;45.55;6.60;;;;;;;;;;4949793;28;20128;-70
2023/01/13 06:47:59;;;;;;;41.38;5.60;;;;;;;;;;4948187;28;20063;-70
2023/01/13 06:50:27;;;;;;;41.15;5.47;;;;;;;;;;4934921;28;20055;-71
2023/01/13 06:52:55;;;;;;;39.85;4.95;;;;;;;;;;4934960;28;20067;-70
2023/01/13 06:55:23;;;;;;;32.60;4.30;;;;;;;;;;4945026;28;20414;-70
2023/01/13 06:57:51;;;;;;;37.58;5.40;;;;;;;;;;4950001;28;20070;-71
2023/01/13 07:00:18;;;;;;;36.53;5.25;;;;;;;;;;4947405;28;20146;-71
2023/01/13 07:02:46;;;;;;;45.40;5.15;;;;;;;;;;4948654;28;20047;-71
2023/01/13 07:05:13;;;;;;;42.45;5.30;;;;;;;;;;4948983;28;20070;-70
2023/01/13 07:07:40;;;;;;;37.92;6.25;;;;;;;;;;4951465;28;20055;-71
2023/01/13 07:10:11;;;;;;;38.83;5.00;;;;;;;;;;4954771;28;20148;-71
2023/01/13 07:15:20;;;;;;;37.75;4.70;;;;;;;;;;4963399;28;20047;-71
2023/01/13 07:17:48;;;;;;;30.35;4.93;;;;;;;;;;4968127;28;20078;-71
2023/01/13 07:20:15;;;;;;;42.78;5.20;;;;;;;;;;4969302;28;20065;-71
2023/01/13 07:22:43;;;;;;;35.13;5.30;;;;;;;;;;4966933;28;20065;-70
2023/01/13 07:25:12;;;;;;;44.78;4.47;;;;;;;;;;4967767;28;20478;-71
2023/01/13 07:27:39;;;;;;;40.17;5.05;;;;;;;;;;4960467;28;20505;-70
2023/01/13 07:30:07;;;;;;;42.85;5.63;;;;;;;;;;4964373;28;20162;-71
2023/01/13 07:32:35;;;;;;;34.80;6.57;;;;;;;;;;4969717;28;20054;-71
2023/01/13 07:35:04;;;;;;;37.70;4.75;;;;;;;;;;4968576;28;20145;-70
2023/01/13 07:37:32;;;;;;;39.03;6.25;;;;;;;;;;4971453;28;20047;-71
2023/01/13 07:40:00;;;;;;;44.13;6.15;;;;;;;;;;4968566;28;20153;-71
2023/01/13 07:45:13;;;;;;;35.60;5.25;;;;;;;;;;4968142;28;20050;-71
2023/01/13 07:47:41;;;;;;;37.83;4.82;;;;;;;;;;4970108;28;20426;-70
2023/01/13 07:50:09;;;;;;;34.92;4.35;;;;;;;;;;4969819;28;20050;-70
2023/01/13 07:52:36;;;;;;;32.53;4.88;;;;;;;;;;4968631;28;20080;-71
2023/01/13 07:55:04;;;;;;;36.35;6.22;;;;;;;;;;4968010;28;20066;-69
2023/01/13 07:57:32;;;;;;;36.90;4.30;;;;;;;;;;4965094;28;20157;-70
2023/01/13 08:00:00;;;;;;;41.05;6.88;;;;;;;;;;4969176;28;20058;-70
2023/01/13 08:02:27;;;;;;;38.08;5.78;;;;;;;;;;4968991;28;20050;-70
2023/01/13 08:04:54;;;;;;;37.47;5.88;;;;;;;;;;4965290;28;20047;-70
2023/01/13 08:07:21;;;;;;;31.52;4.97;;;;;;;;;;4969750;28;21574;-71
2023/01/13 08:09:48;;;;;;;33.40;5.38;;;;;;;;;;4970683;28;20051;-69
2023/01/13 08:15:03;;;;;;;44.75;5.60;;;;;;;;;;4969745;28;20049;-70
2023/01/13 08:17:30;;;;;;;41.67;5.75;;;;;;;;;;4966857;28;20054;-70
2023/01/13 08:19:58;;;;;;;41.88;6.60;;;;;;;;;;4967131;28;20062;-71
2023/01/13 08:22:25;;;;;;;49.13;6.45;;;;;;;;;;4966900;28;20059;-71
2023/01/13 08:24:52;;;;;;;45.20;6.13;;;;;;;;;;4962235;28;20053;-71
2023/01/13 08:27:20;;;;;;;45.83;5.72;;;;;;;;;;4967347;28;20047;-71
2023/01/13 08:29:47;;;;;;;48.45;5.75;;;;;;;;;;4965389;28;20055;-72
2023/01/13 08:32:15;;;;;;;39.28;5.32;;;;;;;;;;4965850;28;20490;-72
2023/01/13 08:34:43;;;;;;;49.30;6.57;;;;;;;;;;4958633;28;20410;-70
2023/01/13 08:37:10;;;;;;;38.78;5.43;;;;;;;;;;4966901;28;20054;-72
2023/01/13 08:39:38;;;;;;;44.05;4.97;;;;;;;;;;4969155;28;20039;-72
2023/01/13 08:42:06;;;;;;;38.13;6.10;;;;;;;;;;4958831;28;20051;-73
2023/01/13 08:44:33;;;;;;;36.67;4.55;;;;;;;;;;4964184;28;20570;-73
2023/01/13 08:47:00;;;;;;;42.80;4.32;;;;;;;;;;4966512;28;20054;-72
2023/01/13 08:49:29;;;;;;;46.55;5.60;;;;;;;;;;4965214;28;20054;-73
2023/01/13 08:51:56;;;;;;;48.58;6.95;;;;;;;;;;4962622;28;20050;-73
2023/01/13 08:54:23;;;;;;;51.28;5.93;;;;;;;;;;4965248;28;20395;-70
2023/01/13 08:56:51;;;;;;;42.45;5.78;;;;;;;;;;4970207;28;20047;-73
2023/01/13 08:59:19;;;;;;;54.95;5.30;;;;;;;;;;4967522;28;20042;-73
2023/01/13 09:01:46;;;;;;;51.95;5.88;;;;;;;;;;4964062;28;20055;-72
2023/01/13 09:04:15;;;;;;;52.15;5.05;;;;;;;;;;4962076;28;20048;-73
2023/01/13 09:06:44;;;;;;;36.90;4.78;;;;;;;;;;4965264;28;20149;-72
2023/01/13 09:09:12;;;;;;;40.85;5.25;;;;;;;;;;4968941;28;20493;-71
2023/01/13 09:14:27;;;;;;;49.63;4.82;;;;;;;;;;4967895;28;20178;-71
2023/01/13 09:16:54;;;;;;;42.25;5.95;;;;;;;;;;4969476;28;20057;-72
2023/01/13 09:19:21;;;;;;;43.00;5.47;;;;;;;;;;4970472;28;20070;-72
2023/01/13 09:21:51;;;;;;;44.97;4.68;;;;;;;;;;4971819;28;20061;-73
2023/01/13 09:24:18;;;;;;;42.55;5.38;;;;;;;;;;4970184;28;20050;-73
2023/01/13 09:26:46;;;;;;;40.40;4.65;;;;;;;;;;4966297;28;20055;-73
2023/01/13 09:29:13;;;;;;;45.88;5.60;;;;;;;;;;4968924;28;20487;-73
2023/01/13 09:31:40;;;;;;;39.63;4.70;;;;;;;;;;4959706;28;20051;-73
2023/01/13 09:36:54;;;;;;;53.72;6.65;;;;;;;;;;4970413;28;20043;-73
2023/01/13 09:39:22;;;;;;;50.28;5.35;;;;;;;;;;4966000;28;20050;-72
2023/01/13 09:44:42;;;;;;;38.00;4.68;;;;;;;;;;4968549;28;20044;-72
2023/01/13 09:47:15;;;;;;;49.33;5.30;;;;;;;;;;4970037;28;20047;-72
2023/01/13 09:49:43;;;;;;;40.58;7.15;;;;;;;;;;4970494;28;20054;-73
2023/01/13 09:52:14;;;;;;;48.83;6.55;;;;;;;;;;4972718;28;20055;-73
2023/01/13 09:54:43;;;;;;;44.53;5.53;;;;;;;;;;4969262;28;20533;-72
2023/01/13 09:57:11;;;;;;;41.45;4.30;;;;;;;;;;4969794;28;20711;-72
2023/01/13 09:59:39;;;;;;;23.90;4.28;;;;;;;;;;4969552;28;20521;-72
2023/01/13 10:02:18;;;;;;;37.03;4.57;;;;;;;;;;4971268;28;20053;-72
2023/01/13 10:05:02;;;;;;;40.30;5.32;;;;;;;;;;4977779;28;20054;-73
2023/01/13 10:07:32;;;;;;;36.30;4.05;;;;;;;;;;4966156;28;20058;-73
2023/01/13 10:10:00;;;;;;;36.20;4.40;;;;;;;;;;4970239;28;20046;-72
2023/01/13 10:15:15;;;;;;;30.15;4.35;;;;;;;;;;4965916;28;20054;-72
2023/01/13 10:17:45;;;;;;;32.38;4.57;;;;;;;;;;4963499;28;20046;-71
2023/01/13 10:20:17;;;;;;;31.63;4.28;;;;;;;;;;4968895;28;20050;-71
2023/01/13 10:22:55;;;;;;;31.05;4.80;;;;;;;;;;4959294;28;20417;-71
2023/01/13 10:25:28;;;;;;;30.83;4.70;;;;;;;;;;4964988;28;20055;-71
2023/01/13 10:27:57;;;;;;;31.60;3.72;;;;;;;;;;4967406;28;20101;-72
2023/01/13 10:30:30;;;;;;;33.35;4.05;;;;;;;;;;4969783;28;20050;-72
2023/01/13 10:32:58;;;;;;;33.70;4.78;;;;;;;;;;4976784;28;20061;-71
2023/01/13 10:35:44;;;;;;;36.60;4.75;;;;;;;;;;4965546;28;20062;-71
2023/01/13 10:38:17;;;;;;;26.38;3.50;;;;;;;;;;4969030;28;20058;-69
2023/01/13 10:40:48;;;;;;;41.28;4.72;;;;;;;;;;4969578;28;20478;-71
2023/01/13 10:43:16;;;;;;;35.50;5.00;;;;;;;;;;4965832;28;20491;-71
2023/01/13 10:45:44;;;;;;;29.63;4.05;;;;;;;;;;4966422;28;20058;-71
2023/01/13 10:48:14;;;;;;;35.78;3.85;;;;;;;;;;4964130;28;20050;-72
2023/01/13 10:50:42;;;;;;;35.55;4.43;;;;;;;;;;4966009;28;20055;-71
2023/01/13 10:53:19;;;;;;;29.48;4.25;;;;;;;;;;4963707;28;20051;-72
2023/01/13 10:55:59;;;;;;;28.58;4.55;;;;;;;;;;4965999;28;20051;-70
2023/01/13 10:58:27;;;;;;;36.13;4.07;;;;;;;;;;4958756;28;20062;-72
2023/01/13 11:01:05;;;;;;;33.95;4.65;;;;;;;;;;4964004;28;20466;-72
2023/01/13 11:03:40;;;;;;;33.60;4.60;;;;;;;;;;4961649;28;20054;-71
2023/01/13 11:06:07;;;;;;;26.33;4.38;;;;;;;;;;4961163;28;20047;-71
2023/01/13 11:08:44;;;;;;;28.70;3.88;;;;;;;;;;4964256;28;20051;-70
2023/01/13 11:11:28;;;;;;;32.55;3.67;;;;;;;;;;4963395;28;20150;-71
2023/01/13 11:16:45;;;;;;;25.48;3.83;;;;;;;;;;4962687;28;20051;-72
2023/01/13 11:19:14;;;;;;;24.70;3.03;;;;;;;;;;4963842;28;20130;-72
2023/01/13 11:21:45;;;;;;;32.55;3.97;;;;;;;;;;4963621;28;20106;-71
2023/01/13 11:24:18;;;;;;;34.45;3.97;;;;;;;;;;4958390;28;20589;-73
2023/01/13 11:26:48;;;;;;;23.92;3.92;;;;;;;;;;4965035;28;20063;-72
2023/01/13 11:29:18;;;;;;;33.70;3.67;;;;;;;;;;4964306;28;20047;-73
2023/01/13 11:31:48;;;;;;;31.33;4.55;;;;;;;;;;4967980;28;20059;-71
2023/01/13 11:34:20;;;;;;;32.63;4.22;;;;;;;;;;4961982;28;20078;-73
2023/01/13 11:36:51;;;;;;;37.70;4.30;;;;;;;;;;4966960;28;20055;-72
2023/01/13 11:39:23;;;;;;;31.00;3.60;;;;;;;;;;4969194;28;20072;-72
2023/01/13 11:44:38;;;;;;;26.35;3.45;;;;;;;;;;4966644;28;20153;-72
2023/01/13 11:47:06;;;;;;;29.13;4.00;;;;;;;;;;4959679;28;20055;-72
2023/01/13 11:49:33;;;;;;;40.15;4.18;;;;;;;;;;4968898;28;20051;-72
2023/01/13 11:52:05;;;;;;;30.00;3.38;;;;;;;;;;4963072;28;20055;-71
2023/01/13 11:54:50;;;;;;;23.80;3.92;;;;;;;;;;4967709;28;20043;-72
2023/01/13 11:57:35;;;;;;;22.60;3.67;;;;;;;;;;4953078;28;20063;-72
2023/01/13 12:00:35;;;;;;;32.35;5.07;;;;;;;;;;4967989;28;20047;-72
2023/01/13 12:03:17;;;;;;;26.15;3.70;;;;;;;;;;4902461;29;20056;-73
2023/01/13 12:05:48;;;;;;;20.73;3.00;;;;;;;;;;4904521;29;20055;-72
2023/01/13 12:08:21;;;;;;;28.67;3.88;;;;;;;;;;4942035;28;20050;-71
2023/01/13 12:10:56;;;;;;;27.10;3.75;;;;;;;;;;4969464;28;20069;-72
2023/01/13 12:13:27;;;;;;;25.85;3.00;;;;;;;;;;4966936;28;20061;-71
2023/01/13 12:16:03;;;;;;;28.83;3.72;;;;;;;;;;4965749;28;20406;-72
2023/01/13 12:18:43;;;;;;;27.15;3.60;;;;;;;;;;4964122;28;20114;-72
2023/01/13 12:21:18;;;;;;;26.00;3.47;;;;;;;;;;4962750;28;20047;-72
2023/01/13 12:23:49;;;;;;;24.60;3.83;;;;;;;;;;4964325;28;20133;-72
2023/01/13 12:26:17;;;;;;;22.02;2.88;;;;;;;;;;4966178;28;20057;-72
2023/01/13 12:28:47;;;;;;;20.27;2.70;;;;;;;;;;4962631;28;20514;-71
2023/01/13 12:31:17;;;;;;;23.80;3.67;;;;;;;;;;4967496;28;20059;-72
2023/01/13 12:34:02;;;;;;;26.85;3.90;;;;;;;;;;4962911;28;20062;-71
2023/01/13 12:36:32;;;;;;;22.73;3.38;;;;;;;;;;4967363;28;20051;-72
2023/01/13 12:39:05;;;;;;;24.20;3.28;;;;;;;;;;4966171;28;20049;-72
2023/01/13 12:44:15;;;;;;;21.08;2.83;;;;;;;;;;4965349;28;20501;-71
2023/01/13 12:44:24;;;;;;;22.20;2.92;;;;;;;;;;4959375;28;20062;-71
2023/01/13 12:46:54;;;;;;;28.20;3.00;;;;;;;;;;4965066;28;20136;-71
2023/01/13 12:49:33;;;;;;;18.58;3.17;;;;;;;;;;4966220;28;20054;-71
2023/01/13 12:52:06;;;;;;;27.42;3.90;;;;;;;;;;4961342;28;20066;-72
2023/01/13 12:54:52;;;;;;;30.88;3.70;;;;;;;;;;4964373;28;20055;-72
2023/01/13 12:57:21;;;;;;;24.85;3.53;;;;;;;;;;4947283;28;20758;-72
2023/01/13 13:00:03;;;;;;;24.70;3.90;;;;;;;;;;4967382;28;20042;-72
2023/01/13 13:02:35;;;;;;;20.40;3.25;;;;;;;;;;4966777;28;20070;-71
2023/01/13 13:05:30;;;;;;;25.65;3.17;;;;;;;;;;4966770;28;20510;-70
2023/01/13 13:08:05;;;;;;;28.75;3.33;;;;;;;;;;4931704;28;20066;-72
2023/01/13 13:10:35;;;;;;;24.38;3.47;;;;;;;;;;4962730;28;20415;-72
2023/01/13 13:13:17;;;;;;;19.83;3.25;;;;;;;;;;4946233;29;20047;-71
2023/01/13 13:15:45;;;;;;;26.67;4.45;;;;;;;;;;4948599;29;20075;-71
2023/01/13 13:18:29;;;;;;;27.33;3.13;;;;;;;;;;4930703;29;20051;-72
2023/01/13 13:21:07;;;;;;;34.20;3.75;;;;;;;;;;4949268;29;20051;-71
2023/01/13 13:23:46;;;;;;;20.73;2.72;;;;;;;;;;4950764;29;20055;-72
2023/01/13 13:26:29;;;;;;;28.10;3.30;;;;;;;;;;4949235;29;20522;-71
2023/01/13 13:29:02;;;;;;;20.65;2.65;;;;;;;;;;4934382;29;20157;-71
2023/01/13 13:31:34;;;;;;;27.50;3.30;;;;;;;;;;4926904;29;20059;-73
2023/01/13 13:34:15;;;;;;;20.80;3.67;;;;;;;;;;4938908;29;20398;-72
2023/01/13 13:37:01;;;;;;;23.63;3.88;;;;;;;;;;4926698;29;20063;-72
2023/01/13 13:48:18;;;;;;;26.85;3.90;;;;;;;;;;4901435;29;20048;-72
2023/01/13 13:50:48;;;;;;;25.42;3.60;;;;;;;;;;4938333;29;20048;-72
2023/01/13 13:53:17;;;;;;;25.98;3.42;;;;;;;;;;4950833;28;20075;-72
2023/01/13 13:55:53;;;;;;;23.63;2.97;;;;;;;;;;4931483;29;20083;-72
2023/01/13 13:58:21;;;;;;;31.70;3.58;;;;;;;;;;4941904;29;20047;-72
2023/01/13 14:00:48;;;;;;;33.15;3.40;;;;;;;;;;4930450;29;20055;-73
2023/01/13 14:03:21;;;;;;;38.22;4.50;;;;;;;;;;4931748;29;20051;-73
2023/01/13 14:05:53;;;;;;;27.10;4.15;;;;;;;;;;4946737;29;20133;-72
2023/01/13 14:08:21;;;;;;;32.70;3.60;;;;;;;;;;4948641;29;20059;-71
2023/01/13 14:10:49;;;;;;;28.08;3.20;;;;;;;;;;4934987;28;20427;-72
2023/01/13 14:13:20;;;;;;;26.33;4.70;;;;;;;;;;4971478;28;20775;-72
2023/01/13 14:15:47;;;;;;;27.08;3.70;;;;;;;;;;4965407;28;20059;-72
2023/01/13 14:18:16;;;;;;;27.80;3.45;;;;;;;;;;4972948;28;20046;-71
2023/01/13 14:20:44;;;;;;;20.92;2.63;;;;;;;;;;4965393;28;20437;-71
2023/01/13 14:23:15;;;;;;;27.75;3.80;;;;;;;;;;4970738;28;20054;-72
2023/01/13 14:25:47;;;;;;;25.00;4.10;;;;;;;;;;4969572;28;20059;-72
2023/01/13 14:28:22;;;;;;;19.13;2.80;;;;;;;;;;4972492;28;20113;-72
2023/01/13 14:30:50;;;;;;;22.50;3.85;;;;;;;;;;4970247;28;20057;-72
2023/01/13 14:33:18;;;;;;;26.00;3.70;;;;;;;;;;4967796;28;20053;-71
2023/01/13 14:36:03;;;;;;;16.40;2.83;;;;;;;;;;4967322;28;20413;-71
2023/01/13 14:38:30;;;;;;;24.13;3.33;;;;;;;;;;4956566;28;20062;-71
2023/01/13 14:40:58;;;;;;;19.70;3.75;;;;;;;;;;4970074;28;20050;-72
2023/01/13 14:43:26;;;;;;;29.70;3.70;;;;;;;;;;4962452;28;20057;-71
2023/01/13 14:45:55;;;;;;;30.38;3.70;;;;;;;;;;4961608;28;20047;-72
2023/01/13 14:48:29;;;;;;;22.85;3.35;;;;;;;;;;4962844;28;20059;-71
2023/01/13 14:50:57;;;;;;;24.52;3.97;;;;;;;;;;4965805;28;20039;-72
2023/01/13 14:53:30;;;;;;;29.00;3.88;;;;;;;;;;4965886;28;20080;-71
2023/01/13 14:55:57;;;;;;;27.92;4.13;;;;;;;;;;4966435;28;20585;-72
2023/01/13 14:58:28;;;;;;;27.30;3.75;;;;;;;;;;4968047;28;20090;-73
2023/01/13 15:01:10;;;;;;;29.55;4.70;;;;;;;;;;4963555;28;20051;-70
2023/01/13 15:03:41;;;;;;;30.52;3.40;;;;;;;;;;4968440;28;20050;-72
2023/01/13 15:06:21;;;;;;;31.52;4.15;;;;;;;;;;4966144;28;20059;-73
2023/01/13 15:08:49;;;;;;;29.10;3.67;;;;;;;;;;4968248;28;20387;-73
2023/01/13 15:11:21;;;;;;;31.83;3.65;;;;;;;;;;4962128;28;20066;-72
2023/01/13 15:13:53;;;;;;;27.17;3.40;;;;;;;;;;4966508;28;20099;-72
2023/01/13 15:16:22;;;;;;;32.55;3.42;;;;;;;;;;4962923;28;20047;-73
2023/01/13 15:18:49;;;;;;;28.10;3.00;;;;;;;;;;4958742;28;20507;-73
2023/01/13 15:21:17;;;;;;;30.90;4.03;;;;;;;;;;4965077;28;20050;-73
2023/01/13 15:23:46;;;;;;;26.95;3.00;;;;;;;;;;4971447;28;20493;-72
2023/01/13 15:26:24;;;;;;;28.90;4.00;;;;;;;;;;4971484;28;20082;-72
2023/01/13 15:28:53;;;;;;;21.10;3.28;;;;;;;;;;4968669;28;20063;-71
2023/01/13 15:31:20;;;;;;;31.52;3.40;;;;;;;;;;4962003;28;20087;-71
2023/01/13 15:33:48;;;;;;;30.35;3.63;;;;;;;;;;4967161;28;20077;-71
2023/01/13 15:36:20;;;;;;;30.17;4.22;;;;;;;;;;4969920;28;20409;-70
2023/01/13 15:38:48;;;;;;;33.25;4.68;;;;;;;;;;4965074;28;20410;-71
2023/01/13 15:41:15;;;;;;;32.85;3.88;;;;;;;;;;4968028;28;20517;-72
2023/01/13 15:46:40;;;;;;;42.95;4.30;;;;;;;;;;4964673;28;20054;-73
2023/01/13 15:49:11;;;;;;;28.70;4.10;;;;;;;;;;4969276;28;20082;-73
2023/01/13 15:51:39;;;;;;;36.88;5.47;;;;;;;;;;4969109;28;20134;-75